Time;durP1;ratioP1;P1;durP2;ratioP2;P2;SDS_P1;SDS_P2;PMS_P1;PMS_P2;Temp;Humidity;BMP_temperature;BMP_pressure;BME280_temperature;BME280_humidity;BME280_pressure;Samples;Min_cycle;Max_cycle;Signal;HPM_P1;HPM_P2
2022/11/12 00:01:58;;;;;;;13.10;8.77;;;11.70;82.80;;;;;;5061330;28;20205;-94
2022/11/12 00:04:26;;;;;;;17.03;10.50;;;11.70;82.70;;;;;;5059809;28;20199;-93
2022/11/12 00:06:56;;;;;;;15.80;10.63;;;11.60;82.60;;;;;;5068564;28;20204;-95
2022/11/12 00:09:25;;;;;;;16.07;10.83;;;11.60;82.80;;;;;;5067274;28;20235;-92
2022/11/12 00:12:01;;;;;;;13.17;9.67;;;11.50;82.90;;;;;;5050953;28;20244;-94
2022/11/12 00:14:29;;;;;;;14.33;9.47;;;11.50;83.50;;;;;;5076733;28;20200;-93
2022/11/12 00:17:07;;;;;;;17.57;10.63;;;11.50;83.40;;;;;;5073086;28;20220;-94
2022/11/12 00:19:35;;;;;;;21.17;11.07;;;11.40;83.80;;;;;;5068601;28;20204;-94
2022/11/12 00:22:04;;;;;;;17.60;11.00;;;11.40;83.70;;;;;;5061043;28;20622;-94
2022/11/12 00:27:22;;;;;;;16.73;10.63;;;11.40;84.40;;;;;;5058971;28;20200;-92
2022/11/12 00:29:53;;;;;;;18.73;11.30;;;11.40;84.50;;;;;;5058010;28;20211;-94
2022/11/12 00:32:29;;;;;;;20.97;11.93;;;11.30;84.50;;;;;;5058286;28;20268;-93
2022/11/12 00:34:59;;;;;;;16.37;10.63;;;11.30;84.50;;;;;;5055624;28;20208;-93
2022/11/12 00:37:27;;;;;;;19.77;11.93;;;11.30;84.70;;;;;;5057331;28;20224;-93
2022/11/12 00:39:56;;;;;;;21.47;12.17;;;11.30;84.60;;;;;;5057227;28;20204;-94
2022/11/12 00:42:25;;;;;;;24.30;12.63;;;11.30;84.70;;;;;;5055918;28;20288;-94
2022/11/12 00:44:59;;;;;;;19.80;11.10;;;11.30;84.90;;;;;;5056227;28;20578;-93
2022/11/12 00:47:29;;;;;;;17.90;10.97;;;11.20;84.70;;;;;;5057031;28;20789;-93
2022/11/12 00:50:01;;;;;;;20.67;11.33;;;11.20;84.70;;;;;;5054801;28;20204;-94
2022/11/12 00:52:30;;;;;;;20.17;10.90;;;11.20;84.80;;;;;;5061400;28;20203;-93
2022/11/12 00:55:03;;;;;;;16.37;9.63;;;11.20;84.80;;;;;;5049466;28;20550;-93
2022/11/12 00:57:37;;;;;;;21.93;11.03;;;11.20;84.80;;;;;;5059284;28;20250;-93
2022/11/12 01:00:07;;;;;;;18.17;9.80;;;11.20;85.20;;;;;;5061599;28;20211;-94
2022/11/12 01:02:37;;;;;;;17.10;9.57;;;11.10;84.90;;;;;;5064686;28;20202;-93
2022/11/12 01:05:11;;;;;;;18.87;10.40;;;11.10;84.70;;;;;;5072462;28;20204;-93
2022/11/12 01:07:41;;;;;;;16.90;9.40;;;11.10;84.50;;;;;;5059906;28;20281;-94
2022/11/12 01:10:17;;;;;;;18.87;10.00;;;11.10;84.40;;;;;;5058120;28;20200;-93
2022/11/12 01:13:04;;;;;;;27.63;12.60;;;11.10;84.50;;;;;;5056284;28;20226;-93
2022/11/12 01:15:35;;;;;;;17.40;9.33;;;11.10;84.90;;;;;;5059309;28;20200;-95
2022/11/12 01:18:05;;;;;;;15.27;9.10;;;11.00;84.70;;;;;;5056406;28;20719;-93
2022/11/12 01:20:34;;;;;;;15.53;9.20;;;11.00;84.80;;;;;;5055427;28;20215;-93
2022/11/12 01:23:05;;;;;;;16.23;9.73;;;11.00;84.60;;;;;;5057048;28;20585;-91
2022/11/12 01:25:45;;;;;;;22.83;11.37;;;11.00;84.80;;;;;;5057826;28;20211;-93
2022/11/12 01:28:16;;;;;;;17.33;9.67;;;11.00;85.10;;;;;;5057573;28;20680;-93
2022/11/12 01:30:43;;;;;;;20.63;10.30;;;11.00;84.90;;;;;;5055380;28;20215;-93
2022/11/12 01:33:14;;;;;;;20.13;10.37;;;11.00;84.70;;;;;;5056818;28;20547;-93
2022/11/12 01:35:45;;;;;;;22.87;11.20;;;10.90;84.60;;;;;;5054916;28;21003;-93
2022/11/12 01:38:13;;;;;;;17.67;9.50;;;10.90;84.60;;;;;;5055844;28;20216;-94
2022/11/12 01:40:45;;;;;;;18.40;9.87;;;10.90;84.50;;;;;;5056159;28;20214;-94
2022/11/12 01:43:17;;;;;;;16.43;8.60;;;10.90;84.70;;;;;;5056109;28;20188;-95
2022/11/12 01:45:55;;;;;;;23.87;11.17;;;10.90;84.70;;;;;;5057775;28;20337;-94
2022/11/12 01:48:31;;;;;;;15.07;9.20;;;10.80;85.20;;;;;;5057714;28;20211;-93
2022/11/12 01:51:04;;;;;;;17.60;9.80;;;10.80;84.50;;;;;;5055858;28;20210;-95
2022/11/12 01:53:37;;;;;;;19.37;10.20;;;10.80;84.40;;;;;;5058509;28;20795;-94
2022/11/12 01:56:07;;;;;;;23.97;10.70;;;10.80;84.70;;;;;;5051216;28;20204;-94
2022/11/12 01:58:38;;;;;;;24.00;10.70;;;10.80;84.80;;;;;;5058669;28;20216;-94
2022/11/12 02:01:10;;;;;;;21.93;10.10;;;10.70;84.50;;;;;;5051769;28;20196;-94
2022/11/12 02:03:38;;;;;;;14.43;8.90;;;10.70;84.50;;;;;;5061997;28;20557;-94
2022/11/12 02:06:12;;;;;;;17.43;9.70;;;10.70;84.20;;;;;;5055816;28;20305;-94
2022/11/12 02:08:39;;;;;;;15.33;9.47;;;10.70;84.60;;;;;;5055983;28;20717;-95
2022/11/12 02:11:15;;;;;;;12.60;8.07;;;10.70;84.40;;;;;;5055685;28;20285;-92
2022/11/12 02:16:34;;;;;;;15.90;8.70;;;10.60;84.40;;;;;;5045028;28;20198;-94
2022/11/12 02:19:05;;;;;;;16.37;8.80;;;10.60;84.20;;;;;;5049082;28;20270;-94
2022/11/12 02:21:34;;;;;;;19.30;9.67;;;10.60;84.40;;;;;;5056872;28;20200;-92
2022/11/12 02:24:04;;;;;;;16.37;9.27;;;10.60;84.50;;;;;;5054349;28;20204;-94
2022/11/12 02:26:46;;;;;;;18.67;9.30;;;10.60;84.30;;;;;;5055512;28;20234;-94
2022/11/12 02:29:20;;;;;;;14.93;9.00;;;10.60;84.40;;;;;;5053920;28;20685;-93
2022/11/12 02:31:48;;;;;;;14.53;8.50;;;10.50;84.20;;;;;;5054323;28;20209;-93
2022/11/12 02:34:17;;;;;;;15.60;8.63;;;10.50;84.10;;;;;;5055767;28;20623;-95
2022/11/12 02:36:49;;;;;;;22.13;10.60;;;10.50;84.30;;;;;;5054099;28;20234;-93
2022/11/12 02:39:21;;;;;;;13.30;7.40;;;10.50;85.00;;;;;;5054442;28;20222;-93
2022/11/12 02:41:49;;;;;;;18.87;8.93;;;10.50;84.50;;;;;;5055585;28;20207;-94
2022/11/12 02:44:17;;;;;;;14.70;7.40;;;10.50;84.30;;;;;;5055674;28;20202;-94
2022/11/12 02:46:46;;;;;;;15.17;7.80;;;10.40;84.20;;;;;;5054229;28;20244;-94
2022/11/12 02:49:14;;;;;;;15.73;8.77;;;10.40;84.30;;;;;;5053065;28;20215;-94
2022/11/12 02:51:42;;;;;;;17.90;8.70;;;10.40;84.20;;;;;;5054582;28;20235;-93
2022/11/12 02:54:18;;;;;;;17.40;9.10;;;10.40;84.20;;;;;;5056511;28;20196;-94
2022/11/12 02:56:49;;;;;;;16.43;8.17;;;10.40;84.40;;;;;;5059448;28;20202;-93
2022/11/12 02:59:16;;;;;;;23.40;10.17;;;10.40;84.60;;;;;;5061656;28;21016;-94
2022/11/12 03:01:43;;;;;;;18.57;9.30;;;10.40;84.40;;;;;;5054997;28;20295;-93
2022/11/12 03:04:12;;;;;;;14.17;8.40;;;10.30;84.30;;;;;;5055350;28;20225;-92
2022/11/12 03:06:41;;;;;;;20.60;9.30;;;10.30;84.20;;;;;;5049260;28;20214;-93
2022/11/12 03:09:13;;;;;;;16.07;7.97;;;10.30;84.30;;;;;;5050852;28;20211;-94
2022/11/12 03:11:42;;;;;;;18.17;9.10;;;10.30;84.50;;;;;;5053070;28;20244;-93
2022/11/12 03:14:09;;;;;;;15.50;7.90;;;10.30;84.70;;;;;;5051970;28;20207;-92
2022/11/12 03:16:36;;;;;;;15.57;7.80;;;10.30;84.70;;;;;;5047625;28;20775;-93
2022/11/12 03:19:07;;;;;;;16.80;8.03;;;10.20;84.40;;;;;;5051043;28;20222;-90
2022/11/12 03:21:36;;;;;;;16.93;8.57;;;10.20;85.00;;;;;;5053494;28;20258;-92
2022/11/12 03:24:03;;;;;;;15.93;8.20;;;10.20;84.90;;;;;;5039144;28;20251;-94
2022/11/12 03:26:36;;;;;;;17.30;8.67;;;10.20;84.70;;;;;;5044560;28;20207;-90
2022/11/12 03:29:11;;;;;;;19.97;9.07;;;10.20;85.00;;;;;;5051567;28;20211;-92
2022/11/12 03:31:39;;;;;;;19.93;9.40;;;10.20;85.10;;;;;;5052381;28;20199;-92
2022/11/12 03:34:06;;;;;;;22.57;9.60;;;10.20;85.20;;;;;;5049245;28;20661;-93
2022/11/12 03:36:33;;;;;;;16.03;8.63;;;10.20;85.10;;;;;;5052362;28;20217;-93
2022/11/12 03:39:02;;;;;;;17.73;8.57;;;10.20;85.20;;;;;;5048416;28;20262;-93
2022/11/12 03:41:30;;;;;;;14.60;7.77;;;10.20;85.30;;;;;;5056563;28;20207;-92
2022/11/12 03:44:00;;;;;;;15.53;8.17;;;10.20;85.60;;;;;;5056308;28;20249;-93
2022/11/12 03:46:27;;;;;;;17.37;8.33;;;10.20;86.00;;;;;;5055566;28;20200;-92
2022/11/12 03:48:55;;;;;;;16.83;8.23;;;10.20;85.90;;;;;;5055571;28;20217;-92
2022/11/12 03:51:22;;;;;;;17.43;8.70;;;10.10;85.60;;;;;;5056485;28;20260;-92
2022/11/12 03:53:50;;;;;;;20.40;9.57;;;10.10;85.80;;;;;;5054459;28;20207;-92
2022/11/12 03:56:18;;;;;;;16.10;8.83;;;10.10;85.90;;;;;;5056180;28;20202;-91
2022/11/12 03:58:46;;;;;;;17.27;8.33;;;10.10;86.60;;;;;;5054874;28;20743;-93
2022/11/12 04:01:18;;;;;;;24.37;10.00;;;10.20;86.80;;;;;;5055937;28;20211;-94
2022/11/12 04:03:45;;;;;;;16.53;7.83;;;10.10;87.00;;;;;;5056166;28;20249;-93
2022/11/12 04:08:58;;;;;;;18.47;8.83;;;10.20;86.90;;;;;;5058900;28;20460;-93
2022/11/12 04:11:26;;;;;;;12.43;6.90;;;10.10;86.60;;;;;;5064451;28;20215;-94
2022/11/12 04:13:54;;;;;;;15.23;7.87;;;10.10;86.50;;;;;;5058233;28;20196;-94
2022/11/12 04:22:11;;;;;;;23.77;9.83;;;10.20;86.70;;;;;;5020582;28;20751;-93
2022/11/12 04:27:31;;;;;;;19.23;8.47;;;10.20;87.50;;;;;;5060190;28;20210;-92
2022/11/12 04:30:17;;;;;;;15.97;8.03;;;10.20;87.40;;;;;;5063467;28;20247;-93
2022/11/12 04:32:53;;;;;;;19.10;8.20;;;10.20;87.20;;;;;;5049328;28;20666;-93
2022/11/12 04:35:21;;;;;;;14.57;8.10;;;10.20;87.80;;;;;;5057480;28;20725;-92
2022/11/12 04:37:49;;;;;;;17.53;8.90;;;10.20;87.80;;;;;;5055074;28;20227;-92
2022/11/12 04:45:55;;;;;;;23.40;10.73;;;10.20;87.80;;;;;;5038293;28;20202;-93
2022/11/12 04:48:25;;;;;;;25.23;9.83;;;10.20;87.80;;;;;;5052969;28;20208;-93
2022/11/12 04:50:55;;;;;;;17.17;7.93;;;10.20;87.70;;;;;;5055102;28;20261;-93
2022/11/12 04:53:23;;;;;;;16.20;7.53;;;10.20;87.80;;;;;;5049879;28;20264;-93
2022/11/12 04:55:51;;;;;;;18.40;8.17;;;10.30;87.90;;;;;;5053475;28;20812;-93
2022/11/12 04:58:20;;;;;;;21.63;9.67;;;10.20;87.70;;;;;;5052263;28;20265;-93
2022/11/12 05:00:50;;;;;;;17.57;8.17;;;10.20;87.80;;;;;;5054598;28;20234;-90
2022/11/12 05:03:30;;;;;;;18.77;8.27;;;10.20;87.80;;;;;;5054955;28;20211;-93
2022/11/12 05:06:01;;;;;;;17.37;8.27;;;10.30;87.90;;;;;;5053344;28;20265;-92
2022/11/12 05:08:28;;;;;;;12.70;7.63;;;10.20;87.80;;;;;;5041540;28;20196;-94
2022/11/12 05:10:56;;;;;;;20.93;9.40;;;10.30;87.40;;;;;;5053407;28;20684;-93
2022/11/12 05:13:24;;;;;;;21.87;8.90;;;10.30;87.30;;;;;;5054336;28;20211;-91
2022/11/12 05:15:52;;;;;;;19.03;9.10;;;10.30;87.50;;;;;;5040160;28;20846;-93
2022/11/12 05:18:21;;;;;;;16.87;8.23;;;10.20;87.50;;;;;;5055576;28;20313;-94
2022/11/12 05:20:53;;;;;;;17.87;8.80;;;10.30;87.50;;;;;;5054562;28;20206;-93
2022/11/12 05:23:21;;;;;;;15.93;7.97;;;10.20;87.60;;;;;;5060797;28;20230;-87
2022/11/12 05:25:55;;;;;;;14.43;6.67;;;10.20;87.20;;;;;;5054829;28;20219;-93
2022/11/12 05:28:23;;;;;;;14.77;7.47;;;10.20;87.50;;;;;;5061556;28;20213;-93
2022/11/12 05:30:56;;;;;;;13.70;6.87;;;10.20;87.30;;;;;;5057684;28;20235;-93
2022/11/12 05:33:25;;;;;;;21.77;9.07;;;10.20;87.40;;;;;;5053815;28;20197;-93
2022/11/12 05:35:59;;;;;;;17.70;8.33;;;10.20;87.00;;;;;;5048851;28;20211;-92
2022/11/12 05:38:29;;;;;;;18.97;9.03;;;10.30;87.50;;;;;;5054702;28;20785;-93
2022/11/12 05:40:59;;;;;;;15.77;7.70;;;10.20;87.50;;;;;;5055562;28;20200;-92
2022/11/12 05:43:30;;;;;;;13.67;7.80;;;10.20;87.10;;;;;;5054523;28;20546;-93
2022/11/12 05:45:57;;;;;;;15.10;7.57;;;10.20;87.10;;;;;;5057446;28;20276;-91
2022/11/12 05:48:29;;;;;;;22.10;9.17;;;10.20;87.10;;;;;;5053998;28;20269;-93
2022/11/12 05:51:00;;;;;;;15.43;7.80;;;10.20;87.30;;;;;;5055382;28;20205;-93
2022/11/12 05:53:27;;;;;;;23.80;10.10;;;10.20;87.30;;;;;;5052857;28;20219;-92
2022/11/12 05:56:01;;;;;;;18.57;8.83;;;10.20;87.30;;;;;;5051686;28;20199;-93
2022/11/12 05:58:35;;;;;;;20.43;9.70;;;10.20;87.70;;;;;;5053293;28;20234;-93
2022/11/12 06:01:06;;;;;;;15.50;8.00;;;10.20;87.70;;;;;;5052575;28;20293;-93
2022/11/12 06:03:35;;;;;;;21.03;9.03;;;10.10;87.20;;;;;;5054505;28;20229;-93
2022/11/12 06:06:07;;;;;;;18.87;8.63;;;10.10;87.30;;;;;;5054586;28;20292;-93
2022/11/12 06:08:35;;;;;;;16.90;8.60;;;10.20;87.70;;;;;;5054499;28;20207;-92
2022/11/12 06:11:02;;;;;;;19.43;8.80;;;10.10;87.40;;;;;;5050325;28;20233;-92
2022/11/12 06:13:30;;;;;;;18.37;8.40;;;10.10;87.40;;;;;;5053649;28;20203;-92
2022/11/12 06:15:59;;;;;;;14.10;7.53;;;10.10;87.20;;;;;;5054368;28;20200;-93
2022/11/12 06:18:32;;;;;;;16.97;8.20;;;10.10;87.40;;;;;;5053628;28;20204;-92
2022/11/12 06:21:26;;;;;;;17.00;8.57;;;10.10;87.10;;;;;;5053377;28;20206;-92
2022/11/12 06:23:56;;;;;;;17.67;8.77;;;10.10;87.30;;;;;;5054531;28;20220;-93
2022/11/12 06:26:28;;;;;;;15.57;7.83;;;10.10;87.40;;;;;;5058112;28;20202;-94
2022/11/12 06:28:59;;;;;;;13.80;7.07;;;10.10;87.30;;;;;;5061386;28;20210;-93
2022/11/12 06:31:27;;;;;;;19.13;8.23;;;10.00;87.10;;;;;;5064454;28;20230;-93
2022/11/12 06:33:57;;;;;;;15.37;7.87;;;10.00;87.00;;;;;;5051280;28;20244;-93
2022/11/12 06:36:28;;;;;;;23.87;9.33;;;10.00;87.10;;;;;;5050842;28;20203;-93
2022/11/12 06:38:56;;;;;;;16.73;7.47;;;10.00;87.20;;;;;;5054174;28;20275;-92
2022/11/12 06:41:33;;;;;;;17.03;8.00;;;10.00;87.20;;;;;;5055292;28;20242;-93
2022/11/12 06:44:03;;;;;;;18.67;9.03;;;10.00;87.10;;;;;;5054563;28;20242;-92
2022/11/12 06:46:31;;;;;;;21.10;9.93;;;10.00;87.10;;;;;;5052146;28;20625;-93
2022/11/12 06:49:05;;;;;;;19.03;8.70;;;10.00;87.40;;;;;;5051652;28;20214;-93
2022/11/12 06:51:36;;;;;;;16.93;7.60;;;9.90;88.70;;;;;;5056212;28;20224;-93
2022/11/12 06:54:04;;;;;;;23.20;9.93;;;9.90;88.70;;;;;;5043138;28;20200;-93
2022/11/12 06:56:37;;;;;;;18.63;8.93;;;9.90;88.70;;;;;;5053874;28;20195;-92
2022/11/12 06:59:09;;;;;;;16.27;8.53;;;9.90;88.90;;;;;;5051251;28;20336;-92
2022/11/12 07:01:36;;;;;;;28.57;10.87;;;9.90;89.00;;;;;;5055196;28;20257;-90
2022/11/12 07:04:05;;;;;;;21.40;9.30;;;9.90;88.70;;;;;;5050871;28;20204;-91
2022/11/12 07:06:34;;;;;;;20.00;9.67;;;9.90;89.10;;;;;;5049250;28;20244;-89
2022/11/12 07:09:03;;;;;;;18.10;8.47;;;9.90;89.10;;;;;;5039026;28;20215;-91
2022/11/12 07:11:34;;;;;;;17.93;8.20;;;9.90;89.00;;;;;;5051093;28;20232;-91
2022/11/12 07:14:06;;;;;;;16.07;8.17;;;9.90;89.00;;;;;;5053051;28;20300;-91
2022/11/12 07:16:34;;;;;;;20.40;9.10;;;9.90;88.70;;;;;;5053193;28;20215;-90
2022/11/12 07:21:52;;;;;;;18.13;8.97;;;9.90;89.50;;;;;;5053386;28;20219;-91
2022/11/12 07:24:19;;;;;;;19.43;8.77;;;9.90;89.70;;;;;;5057171;28;20235;-90
2022/11/12 07:26:47;;;;;;;16.67;8.43;;;9.90;89.70;;;;;;5057885;28;20199;-92
2022/11/12 07:29:21;;;;;;;17.73;9.27;;;9.90;89.80;;;;;;5054177;28;20297;-90
2022/11/12 07:31:50;;;;;;;18.03;8.97;;;9.90;90.00;;;;;;5061838;28;20219;-91
2022/11/12 07:34:23;;;;;;;15.73;8.60;;;9.90;90.30;;;;;;5040544;28;20212;-90
2022/11/12 07:37:05;;;;;;;23.27;10.53;;;9.90;90.50;;;;;;5039869;28;20201;-91
2022/11/12 07:39:40;;;;;;;22.63;9.80;;;9.90;90.80;;;;;;5049856;28;20273;-91
2022/11/12 07:42:14;;;;;;;18.73;8.40;;;9.90;91.10;;;;;;5043799;28;20203;-91
2022/11/12 07:44:46;;;;;;;25.60;10.63;;;9.90;91.00;;;;;;5060722;28;20678;-91
2022/11/12 07:47:14;;;;;;;26.83;10.70;;;9.90;91.20;;;;;;5054723;28;20275;-90
2022/11/12 07:49:44;;;;;;;20.37;9.17;;;10.00;90.80;;;;;;5048895;28;20270;-91
2022/11/12 07:52:15;;;;;;;22.47;9.93;;;10.00;90.70;;;;;;5050354;28;20260;-91
2022/11/12 07:54:43;;;;;;;20.30;9.20;;;10.00;91.00;;;;;;5054626;28;20287;-90
2022/11/12 07:57:11;;;;;;;18.10;9.20;;;10.10;91.00;;;;;;5054124;28;20314;-91
2022/11/12 07:59:38;;;;;;;22.83;10.50;;;10.10;91.60;;;;;;5054275;28;20721;-91
2022/11/12 08:02:08;;;;;;;34.33;12.80;;;10.10;91.30;;;;;;5052446;28;20265;-91
2022/11/12 08:04:35;;;;;;;23.83;10.30;;;10.20;91.40;;;;;;5057203;28;20205;-91
2022/11/12 08:07:06;;;;;;;17.87;8.63;;;10.20;91.90;;;;;;5059439;28;20233;-91
2022/11/12 08:09:35;;;;;;;25.97;11.37;;;10.20;91.80;;;;;;5058834;28;20223;-91
2022/11/12 08:12:03;;;;;;;29.37;11.27;;;10.30;92.00;;;;;;5051910;28;20198;-91
2022/11/12 08:14:30;;;;;;;23.50;10.80;;;10.30;92.00;;;;;;5042075;28;20231;-91
2022/11/12 08:16:58;;;;;;;31.17;12.70;;;10.40;92.10;;;;;;5052074;28;20291;-91
2022/11/12 08:19:24;;;;;;;23.63;10.20;;;10.40;92.10;;;;;;5052069;28;20581;-92
2022/11/12 08:21:53;;;;;;;24.77;11.30;;;10.40;92.10;;;;;;5049012;28;20231;-91
2022/11/12 08:24:22;;;;;;;19.07;10.67;;;10.50;92.30;;;;;;5054887;28;20239;-92
2022/11/12 08:26:51;;;;;;;20.57;10.63;;;10.50;92.30;;;;;;5048349;28;20211;-91
2022/11/12 08:29:22;;;;;;;23.73;11.57;;;10.50;92.50;;;;;;5065624;28;20204;-91
2022/11/12 08:31:56;;;;;;;19.73;9.97;;;10.60;92.70;;;;;;5057069;28;20243;-92
2022/11/12 08:34:23;;;;;;;19.37;10.40;;;10.70;92.80;;;;;;5062762;28;20222;-91
2022/11/12 08:36:51;;;;;;;20.13;11.60;;;10.70;92.40;;;;;;5058579;28;20263;-91
2022/11/12 08:39:20;;;;;;;22.80;11.67;;;10.70;92.50;;;;;;5056538;28;20301;-92
2022/11/12 08:41:53;;;;;;;18.67;10.93;;;10.80;92.70;;;;;;5055451;28;20622;-92
2022/11/12 08:44:20;;;;;;;24.97;12.30;;;10.90;92.60;;;;;;5053095;28;20197;-92
2022/11/12 08:46:50;;;;;;;21.43;11.27;;;10.90;92.60;;;;;;5059953;28;20204;-92
2022/11/12 08:49:20;;;;;;;21.63;11.73;;;10.90;92.80;;;;;;5058833;28;20773;-91
2022/11/12 08:51:51;;;;;;;19.33;10.70;;;11.00;92.90;;;;;;5060635;28;20287;-92
2022/11/12 08:54:18;;;;;;;17.77;10.83;;;11.00;92.90;;;;;;5058196;28;20601;-92
2022/11/12 08:56:45;;;;;;;22.80;11.50;;;11.10;92.70;;;;;;5058031;28;20204;-92
2022/11/12 08:59:29;;;;;;;20.63;10.60;;;11.10;92.70;;;;;;5060460;28;20197;-92
2022/11/12 09:04:38;;;;;;;22.23;11.47;;;11.20;92.90;;;;;;5058929;28;20208;-92
2022/11/12 09:07:06;;;;;;;22.63;10.80;;;11.30;92.90;;;;;;5052614;28;20199;-91
2022/11/12 09:09:33;;;;;;;22.27;11.20;;;11.30;92.90;;;;;;5059096;28;20227;-91
2022/11/12 09:12:00;;;;;;;19.03;10.33;;;11.40;93.00;;;;;;5061782;28;20692;-91
2022/11/12 09:14:29;;;;;;;20.33;10.83;;;11.40;93.00;;;;;;5059813;28;20246;-91
2022/11/12 09:16:57;;;;;;;21.70;11.07;;;11.50;93.20;;;;;;5056041;28;20207;-91
2022/11/12 09:19:25;;;;;;;20.23;10.57;;;11.50;93.10;;;;;;5050517;28;20204;-91
2022/11/12 09:21:54;;;;;;;17.80;10.10;;;11.60;93.30;;;;;;5036016;28;20208;-92
2022/11/12 09:24:23;;;;;;;17.70;10.03;;;11.60;93.30;;;;;;5037426;28;20189;-91
2022/11/12 09:26:55;;;;;;;15.67;9.37;;;11.70;93.40;;;;;;5047858;28;20255;-93
2022/11/12 09:29:24;;;;;;;17.00;10.30;;;11.70;93.50;;;;;;5045441;28;20216;-92
2022/11/12 09:31:54;;;;;;;19.17;10.13;;;11.80;93.40;;;;;;5044089;28;20200;-91
2022/11/12 09:34:27;;;;;;;18.27;9.23;;;11.90;93.50;;;;;;5060971;28;20262;-92
2022/11/12 09:36:56;;;;;;;15.83;9.37;;;12.00;93.40;;;;;;5064075;28;20215;-93
2022/11/12 09:39:24;;;;;;;23.90;11.37;;;12.00;93.30;;;;;;5062136;28;20211;-92
2022/11/12 09:41:51;;;;;;;21.03;10.50;;;12.10;93.40;;;;;;5046291;28;20719;-92
2022/11/12 09:44:23;;;;;;;23.33;10.77;;;12.10;93.20;;;;;;5060505;28;20271;-92
2022/11/12 09:46:57;;;;;;;20.53;10.90;;;12.20;93.40;;;;;;5055863;28;20226;-91
2022/11/12 09:49:29;;;;;;;20.47;10.80;;;12.30;93.40;;;;;;5058486;28;20665;-92
2022/11/12 09:52:01;;;;;;;18.07;9.67;;;12.30;93.30;;;;;;5057371;28;20212;-92
2022/11/12 09:54:31;;;;;;;26.17;12.17;;;12.40;93.30;;;;;;5056501;28;20969;-91
2022/11/12 09:56:59;;;;;;;19.83;10.53;;;12.50;93.30;;;;;;5054383;28;20673;-91
2022/11/12 09:59:31;;;;;;;22.60;10.50;;;12.60;93.30;;;;;;5056837;28;20945;-91
2022/11/12 10:02:23;;;;;;;19.93;10.80;;;12.70;93.70;;;;;;5056938;28;20295;-91
2022/11/12 10:05:03;;;;;;;17.87;10.37;;;12.70;94.10;;;;;;5055522;28;20247;-91
2022/11/12 10:07:51;;;;;;;20.43;11.20;;;12.90;94.20;;;;;;5043535;28;20199;-91
2022/11/12 10:10:28;;;;;;;15.77;10.40;;;13.10;94.30;;;;;;5053971;28;20324;-91
2022/11/12 10:13:12;;;;;;;17.13;9.83;;;13.20;94.40;;;;;;5055569;28;20232;-91
2022/11/12 10:19:23;;;;;;;13.17;9.33;;;13.60;94.10;;;;;;5040670;28;20212;-91
2022/11/12 10:22:01;;;;;;;15.57;9.43;;;13.90;94.00;;;;;;5058151;28;20232;-92
2022/11/12 10:24:38;;;;;;;16.80;10.37;;;14.10;93.40;;;;;;5068012;28;20204;-91
2022/11/12 10:27:16;;;;;;;18.33;9.63;;;14.30;92.90;;;;;;5061102;28;20187;-91
2022/11/12 10:29:53;;;;;;;12.63;8.80;;;14.50;92.80;;;;;;5058999;28;20234;-92
2022/11/12 10:32:21;;;;;;;27.67;12.53;;;14.70;92.60;;;;;;5058061;28;20242;-91
2022/11/12 10:34:56;;;;;;;15.40;9.10;;;14.90;93.10;;;;;;5055530;28;20198;-91
2022/11/12 10:37:29;;;;;;;16.63;9.73;;;15.10;92.50;;;;;;5063301;28;20290;-91
2022/11/12 10:39:58;;;;;;;21.00;10.70;;;15.30;92.60;;;;;;5057779;28;20224;-92
2022/11/12 10:42:28;;;;;;;18.80;10.33;;;15.60;92.10;;;;;;5060122;28;20205;-92
2022/11/12 10:45:20;;;;;;;14.10;9.10;;;15.70;92.60;;;;;;5059374;28;20194;-91
2022/11/12 10:47:49;;;;;;;13.20;8.83;;;16.00;92.00;;;;;;5051259;28;20209;-92
2022/11/12 10:50:34;;;;;;;17.57;8.73;;;16.20;92.00;;;;;;5052348;28;20244;-92
2022/11/12 10:53:05;;;;;;;17.07;9.30;;;16.40;91.10;;;;;;5054777;28;20199;-91
2022/11/12 10:55:34;;;;;;;12.97;8.03;;;16.60;90.30;;;;;;5057093;28;20410;-92
2022/11/12 10:58:13;;;;;;;14.87;9.73;;;16.80;90.20;;;;;;5056854;28;20236;-92
2022/11/12 11:00:57;;;;;;;15.47;8.90;;;17.00;89.50;;;;;;5055601;28;20225;-92
2022/11/12 11:03:30;;;;;;;17.27;9.47;;;17.20;88.30;;;;;;5043723;28;20216;-92
2022/11/12 11:06:03;;;;;;;13.47;8.63;;;17.40;89.30;;;;;;5055864;28;20212;-92
2022/11/12 11:08:42;;;;;;;15.43;9.10;;;17.60;88.70;;;;;;5054643;28;20230;-92
2022/11/12 11:11:24;;;;;;;15.30;9.33;;;17.80;88.40;;;;;;5056444;28;20214;-93
2022/11/12 11:13:55;;;;;;;16.30;9.43;;;17.90;86.50;;;;;;5055250;28;20226;-92
2022/11/12 11:16:23;;;;;;;15.83;8.53;;;18.10;88.50;;;;;;5054670;28;20204;-92
2022/11/12 11:18:56;;;;;;;14.27;9.27;;;18.30;87.60;;;;;;5052415;28;20204;-92
2022/11/12 11:21:57;;;;;;;12.73;9.03;;;18.50;84.40;;;;;;5054985;28;20224;-92
2022/11/12 11:24:46;;;;;;;14.43;9.30;;;18.70;84.40;;;;;;5053364;28;20875;-92
2022/11/12 11:27:29;;;;;;;15.40;9.90;;;18.80;84.10;;;;;;5050885;28;20663;-92
2022/11/12 11:30:08;;;;;;;15.60;10.23;;;19.00;81.80;;;;;;5044159;28;20240;-92
2022/11/12 11:33:09;;;;;;;14.73;9.30;;;19.10;81.10;;;;;;5050402;28;20970;-92
2022/11/12 11:35:53;;;;;;;15.63;9.67;;;19.30;80.40;;;;;;5037503;28;20204;-91
2022/11/12 11:38:49;;;;;;;19.30;11.20;;;19.40;79.60;;;;;;5050914;28;20287;-92
2022/11/12 11:41:31;;;;;;;14.60;9.57;;;19.50;79.20;;;;;;5052726;28;20239;-92
2022/11/12 11:44:08;;;;;;;18.97;11.17;;;19.60;79.00;;;;;;5059563;28;20184;-92
2022/11/12 11:46:58;;;;;;;13.40;9.93;;;19.70;78.20;;;;;;5067676;28;20196;-92
2022/11/12 11:49:36;;;;;;;14.97;9.77;;;19.80;79.00;;;;;;5063605;28;20227;-92
2022/11/12 11:52:14;;;;;;;10.80;9.20;;;20.00;78.00;;;;;;5055642;28;20561;-92
2022/11/12 11:55:09;;;;;;;16.70;10.70;;;20.10;78.00;;;;;;5059435;28;20208;-92
2022/11/12 11:57:47;;;;;;;20.97;11.93;;;20.20;76.10;;;;;;5059445;28;20212;-93
2022/11/12 12:03:21;;;;;;;21.03;13.13;;;20.50;76.40;;;;;;5053588;28;20234;-93
2022/11/12 12:06:24;;;;;;;18.97;13.30;;;20.70;74.30;;;;;;5053131;28;20240;-92
2022/11/12 12:09:14;;;;;;;21.20;14.60;;;20.70;73.00;;;;;;5055050;28;20263;-93
2022/11/12 12:11:51;;;;;;;20.60;14.50;;;20.80;72.60;;;;;;5056963;28;20208;-93
2022/11/12 12:14:46;;;;;;;20.07;13.30;;;20.90;71.50;;;;;;5059291;28;20215;-93
2022/11/12 12:17:27;;;;;;;20.00;13.73;;;20.90;70.20;;;;;;5046627;28;20229;-93
2022/11/12 12:20:03;;;;;;;18.43;13.20;;;20.90;69.70;;;;;;5038475;28;20216;-93
2022/11/12 12:22:44;;;;;;;19.47;12.57;;;20.90;68.70;;;;;;5053798;28;20200;-93
2022/11/12 12:25:15;;;;;;;17.17;12.67;;;20.80;68.50;;;;;;5039724;28;20224;-93
2022/11/12 12:27:57;;;;;;;19.07;12.60;;;20.70;69.50;;;;;;5050032;28;20269;-92
2022/11/12 12:30:26;;;;;;;18.53;12.30;;;20.70;67.30;;;;;;5056386;28;20805;-91
2022/11/12 12:33:01;;;;;;;17.27;11.90;;;20.60;68.50;;;;;;5056630;28;20200;-93
2022/11/12 12:35:34;;;;;;;19.77;12.37;;;20.60;67.80;;;;;;5057670;28;20203;-94
2022/11/12 12:38:11;;;;;;;15.63;11.10;;;20.50;67.90;;;;;;5057579;28;20208;-92
2022/11/12 12:40:47;;;;;;;17.27;11.97;;;20.40;67.90;;;;;;5058005;28;20672;-93
2022/11/12 12:43:24;;;;;;;19.77;12.00;;;20.40;67.60;;;;;;5057104;28;20200;-92
2022/11/12 12:45:57;;;;;;;18.20;12.57;;;20.30;68.10;;;;;;5059463;28;20217;-92
2022/11/12 12:48:30;;;;;;;18.13;12.20;;;20.30;67.40;;;;;;5057861;28;20546;-92
2022/11/12 12:50:57;;;;;;;14.60;10.50;;;20.40;68.50;;;;;;5058435;28;20226;-92
2022/11/12 12:53:36;;;;;;;18.47;11.37;;;20.30;68.80;;;;;;5059751;28;20230;-92
2022/11/12 12:56:06;;;;;;;15.13;10.77;;;20.30;66.00;;;;;;5058388;28;20203;-92
2022/11/12 12:58:43;;;;;;;15.53;11.10;;;20.20;66.50;;;;;;5059415;28;20239;-92
2022/11/12 13:01:27;;;;;;;17.00;11.57;;;20.10;66.30;;;;;;5043677;28;20251;-93
2022/11/12 13:03:58;;;;;;;16.27;10.43;;;20.00;66.80;;;;;;5055338;28;20208;-92
2022/11/12 13:06:28;;;;;;;18.03;11.60;;;19.90;66.30;;;;;;5061286;28;20199;-92
2022/11/12 13:09:03;;;;;;;18.27;12.73;;;19.80;66.50;;;;;;5059382;28;20224;-92
2022/11/12 13:15:10;;;;;;;21.00;12.27;;;19.60;65.20;;;;;;5052498;28;20203;-92
2022/11/12 13:17:50;;;;;;;20.40;13.53;;;19.50;65.20;;;;;;5054565;28;20246;-92
2022/11/12 13:20:39;;;;;;;18.20;12.23;;;19.30;65.70;;;;;;5055486;28;20200;-92
2022/11/12 13:24:04;;;;;;;16.40;11.67;;;19.20;65.80;;;;;;5055171;28;20226;-93
2022/11/12 13:26:49;;;;;;;20.20;12.53;;;19.10;66.20;;;;;;5054083;28;20214;-93
2022/11/12 13:29:40;;;;;;;21.00;12.80;;;18.90;65.60;;;;;;5048999;28;20231;-93
2022/11/12 13:32:34;;;;;;;19.13;12.97;;;18.70;65.80;;;;;;5053094;28;20211;-92
2022/11/12 13:35:33;;;;;;;30.03;14.20;;;18.60;66.00;;;;;;5054768;28;20191;-92
2022/11/12 13:38:03;;;;;;;22.10;13.37;;;18.40;66.10;;;;;;5014817;28;20214;-92
2022/11/12 13:40:44;;;;;;;23.57;13.47;;;18.30;67.00;;;;;;5056195;28;20297;-91